sensor_id;sensor_type;location;lat;lon;timestamp;P1;durP1;ratioP1;P2;durP2;ratioP2
30299;SDS011;17110;52.602;12.998;2023-09-07T00:00:17;8.10;;;7.30;;
30299;SDS011;17110;52.602;12.998;2023-09-07T00:01:18;8.15;;;7.30;;
30299;SDS011;17110;52.602;12.998;2023-09-07T00:02:19;7.90;;;7.10;;
30299;SDS011;17110;52.602;12.998;2023-09-07T00:03:19;8.70;;;7.90;;
30299;SDS011;17110;52.602;12.998;2023-09-07T00:04:20;8.95;;;8.05;;
30299;SDS011;17110;52.602;12.998;2023-09-07T00:05:21;8.13;;;7.43;;
30299;SDS011;17110;52.602;12.998;2023-09-07T00:06:21;8.45;;;7.65;;
30299;SDS011;17110;52.602;12.998;2023-09-07T00:07:22;8.30;;;7.45;;
30299;SDS011;17110;52.602;12.998;2023-09-07T00:08:24;8.02;;;7.30;;
30299;SDS011;17110;52.602;12.998;2023-09-07T00:09:24;7.63;;;6.90;;
30299;SDS011;17110;52.602;12.998;2023-09-07T00:10:25;7.95;;;7.15;;
30299;SDS011;17110;52.602;12.998;2023-09-07T00:11:26;8.27;;;7.55;;
30299;SDS011;17110;52.602;12.998;2023-09-07T00:12:27;9.38;;;8.02;;
30299;SDS011;17110;52.602;12.998;2023-09-07T00:13:27;7.95;;;7.15;;
30299;SDS011;17110;52.602;12.998;2023-09-07T00:14:28;8.60;;;7.90;;
30299;SDS011;17110;52.602;12.998;2023-09-07T00:15:29;8.48;;;7.60;;
30299;SDS011;17110;52.602;12.998;2023-09-07T00:16:30;8.85;;;8.02;;
30299;SDS011;17110;52.602;12.998;2023-09-07T00:17:31;7.93;;;7.22;;
30299;SDS011;17110;52.602;12.998;2023-09-07T00:18:32;8.07;;;7.32;;
30299;SDS011;17110;52.602;12.998;2023-09-07T00:19:33;8.02;;;7.22;;
30299;SDS011;17110;52.602;12.998;2023-09-07T00:20:33;8.27;;;7.53;;
30299;SDS011;17110;52.602;12.998;2023-09-07T00:21:34;8.45;;;7.72;;
30299;SDS011;17110;52.602;12.998;2023-09-07T00:22:34;7.57;;;6.95;;
30299;SDS011;17110;52.602;12.998;2023-09-07T00:23:36;8.20;;;7.40;;
30299;SDS011;17110;52.602;12.998;2023-09-07T00:24:39;8.27;;;7.47;;
30299;SDS011;17110;52.602;12.998;2023-09-07T00:25:40;8.27;;;7.47;;
30299;SDS011;17110;52.602;12.998;2023-09-07T00:26:41;8.32;;;7.18;;
30299;SDS011;17110;52.602;12.998;2023-09-07T00:27:41;8.90;;;8.02;;
30299;SDS011;17110;52.602;12.998;2023-09-07T00:28:42;8.30;;;7.50;;
30299;SDS011;17110;52.602;12.998;2023-09-07T00:29:42;8.38;;;7.55;;
30299;SDS011;17110;52.602;12.998;2023-09-07T00:30:43;8.80;;;7.90;;
30299;SDS011;17110;52.602;12.998;2023-09-07T00:31:44;10.35;;;7.40;;
30299;SDS011;17110;52.602;12.998;2023-09-07T00:32:44;7.93;;;6.82;;
30299;SDS011;17110;52.602;12.998;2023-09-07T00:33:45;11.82;;;8.60;;
30299;SDS011;17110;52.602;12.998;2023-09-07T00:34:46;7.75;;;7.05;;
30299;SDS011;17110;52.602;12.998;2023-09-07T00:35:46;8.45;;;7.75;;
30299;SDS011;17110;52.602;12.998;2023-09-07T00:36:47;9.07;;;7.95;;
30299;SDS011;17110;52.602;12.998;2023-09-07T00:37:48;8.60;;;7.32;;
30299;SDS011;17110;52.602;12.998;2023-09-07T00:38:50;7.65;;;6.90;;
30299;SDS011;17110;52.602;12.998;2023-09-07T00:39:50;7.65;;;7.05;;
30299;SDS011;17110;52.602;12.998;2023-09-07T00:40:51;7.60;;;6.90;;
30299;SDS011;17110;52.602;12.998;2023-09-07T00:41:51;7.82;;;7.00;;
30299;SDS011;17110;52.602;12.998;2023-09-07T00:42:52;9.10;;;7.22;;
30299;SDS011;17110;52.602;12.998;2023-09-07T00:43:53;8.40;;;7.70;;
30299;SDS011;17110;52.602;12.998;2023-09-07T00:44:54;8.20;;;7.50;;
30299;SDS011;17110;52.602;12.998;2023-09-07T00:45:54;7.95;;;7.30;;
30299;SDS011;17110;52.602;12.998;2023-09-07T00:46:56;8.48;;;7.63;;
30299;SDS011;17110;52.602;12.998;2023-09-07T00:47:56;8.13;;;7.40;;
30299;SDS011;17110;52.602;12.998;2023-09-07T00:48:58;7.78;;;7.07;;
30299;SDS011;17110;52.602;12.998;2023-09-07T00:50:01;7.65;;;6.85;;
30299;SDS011;17110;52.602;12.998;2023-09-07T00:51:02;8.18;;;7.40;;
30299;SDS011;17110;52.602;12.998;2023-09-07T00:52:04;8.98;;;7.72;;
30299;SDS011;17110;52.602;12.998;2023-09-07T00:53:05;7.93;;;7.25;;
30299;SDS011;17110;52.602;12.998;2023-09-07T00:54:08;7.82;;;7.07;;
30299;SDS011;17110;52.602;12.998;2023-09-07T00:55:09;9.02;;;7.45;;
30299;SDS011;17110;52.602;12.998;2023-09-07T00:56:10;8.00;;;7.28;;
30299;SDS011;17110;52.602;12.998;2023-09-07T00:57:12;7.78;;;7.00;;
30299;SDS011;17110;52.602;12.998;2023-09-07T00:58:12;8.00;;;7.40;;
30299;SDS011;17110;52.602;12.998;2023-09-07T00:59:13;8.30;;;7.50;;
30299;SDS011;17110;52.602;12.998;2023-09-07T01:00:14;7.93;;;7.15;;
30299;SDS011;17110;52.602;12.998;2023-09-07T01:01:15;8.75;;;7.10;;
30299;SDS011;17110;52.602;12.998;2023-09-07T01:02:16;8.73;;;7.85;;
30299;SDS011;17110;52.602;12.998;2023-09-07T01:03:16;8.45;;;7.55;;
30299;SDS011;17110;52.602;12.998;2023-09-07T01:04:17;7.55;;;6.85;;
30299;SDS011;17110;52.602;12.998;2023-09-07T01:05:18;8.43;;;7.55;;
30299;SDS011;17110;52.602;12.998;2023-09-07T01:06:20;8.60;;;7.78;;
30299;SDS011;17110;52.602;12.998;2023-09-07T01:07:26;8.18;;;7.38;;
30299;SDS011;17110;52.602;12.998;2023-09-07T01:08:35;7.55;;;6.93;;
30299;SDS011;17110;52.602;12.998;2023-09-07T01:09:40;9.10;;;8.02;;
30299;SDS011;17110;52.602;12.998;2023-09-07T01:10:43;7.85;;;7.22;;
30299;SDS011;17110;52.602;12.998;2023-09-07T01:11:44;9.10;;;8.30;;
30299;SDS011;17110;52.602;12.998;2023-09-07T01:12:45;9.60;;;8.68;;
30299;SDS011;17110;52.602;12.998;2023-09-07T01:13:45;9.32;;;8.50;;
30299;SDS011;17110;52.602;12.998;2023-09-07T01:14:46;8.77;;;7.70;;
30299;SDS011;17110;52.602;12.998;2023-09-07T01:15:47;10.38;;;8.68;;
30299;SDS011;17110;52.602;12.998;2023-09-07T01:16:48;10.00;;;8.18;;
30299;SDS011;17110;52.602;12.998;2023-09-07T01:17:50;9.75;;;8.80;;
30299;SDS011;17110;52.602;12.998;2023-09-07T01:18:51;8.32;;;7.57;;
30299;SDS011;17110;52.602;12.998;2023-09-07T01:19:53;9.50;;;8.60;;
30299;SDS011;17110;52.602;12.998;2023-09-07T01:20:57;8.27;;;7.55;;
30299;SDS011;17110;52.602;12.998;2023-09-07T01:21:59;9.00;;;8.10;;
30299;SDS011;17110;52.602;12.998;2023-09-07T01:23:00;9.20;;;8.40;;
30299;SDS011;17110;52.602;12.998;2023-09-07T01:24:03;8.90;;;8.13;;
30299;SDS011;17110;52.602;12.998;2023-09-07T01:25:07;8.60;;;7.90;;
30299;SDS011;17110;52.602;12.998;2023-09-07T01:26:08;9.38;;;8.23;;
30299;SDS011;17110;52.602;12.998;2023-09-07T01:27:10;8.70;;;7.95;;
30299;SDS011;17110;52.602;12.998;2023-09-07T01:28:10;9.30;;;8.50;;
30299;SDS011;17110;52.602;12.998;2023-09-07T01:29:11;8.98;;;8.07;;
30299;SDS011;17110;52.602;12.998;2023-09-07T01:30:13;8.75;;;7.95;;
30299;SDS011;17110;52.602;12.998;2023-09-07T01:31:14;8.88;;;8.18;;
30299;SDS011;17110;52.602;12.998;2023-09-07T01:32:15;9.25;;;8.45;;
30299;SDS011;17110;52.602;12.998;2023-09-07T01:33:16;9.30;;;8.40;;
30299;SDS011;17110;52.602;12.998;2023-09-07T01:34:16;9.90;;;9.02;;
30299;SDS011;17110;52.602;12.998;2023-09-07T01:35:17;9.73;;;8.68;;
30299;SDS011;17110;52.602;12.998;2023-09-07T01:36:19;9.25;;;8.45;;
30299;SDS011;17110;52.602;12.998;2023-09-07T01:37:21;8.57;;;7.88;;
30299;SDS011;17110;52.602;12.998;2023-09-07T01:38:22;9.02;;;8.23;;
30299;SDS011;17110;52.602;12.998;2023-09-07T01:39:23;9.80;;;8.82;;
30299;SDS011;17110;52.602;12.998;2023-09-07T01:40:23;9.80;;;8.80;;
30299;SDS011;17110;52.602;12.998;2023-09-07T01:41:24;8.93;;;8.13;;
30299;SDS011;17110;52.602;12.998;2023-09-07T01:42:25;9.18;;;8.32;;
30299;SDS011;17110;52.602;12.998;2023-09-07T01:43:25;11.60;;;7.97;;
30299;SDS011;17110;52.602;12.998;2023-09-07T01:44:26;8.90;;;7.82;;
30299;SDS011;17110;52.602;12.998;2023-09-07T01:45:27;9.23;;;8.43;;
30299;SDS011;17110;52.602;12.998;2023-09-07T01:46:27;9.05;;;8.15;;
30299;SDS011;17110;52.602;12.998;2023-09-07T01:47:28;11.20;;;8.52;;
30299;SDS011;17110;52.602;12.998;2023-09-07T01:48:28;8.50;;;7.80;;
30299;SDS011;17110;52.602;12.998;2023-09-07T01:49:29;8.90;;;8.00;;
30299;SDS011;17110;52.602;12.998;2023-09-07T01:50:30;9.75;;;8.77;;
30299;SDS011;17110;52.602;12.998;2023-09-07T01:51:30;9.38;;;8.57;;
30299;SDS011;17110;52.602;12.998;2023-09-07T01:52:32;9.20;;;8.20;;
30299;SDS011;17110;52.602;12.998;2023-09-07T01:53:33;8.50;;;7.80;;
30299;SDS011;17110;52.602;12.998;2023-09-07T01:54:34;9.15;;;8.35;;
30299;SDS011;17110;52.602;12.998;2023-09-07T01:55:34;9.00;;;8.20;;
30299;SDS011;17110;52.602;12.998;2023-09-07T01:56:35;9.93;;;8.93;;
30299;SDS011;17110;52.602;12.998;2023-09-07T01:57:35;8.93;;;8.13;;
30299;SDS011;17110;52.602;12.998;2023-09-07T01:58:36;9.60;;;8.60;;
30299;SDS011;17110;52.602;12.998;2023-09-07T01:59:37;9.63;;;8.40;;
30299;SDS011;17110;52.602;12.998;2023-09-07T02:00:37;9.18;;;8.30;;
30299;SDS011;17110;52.602;12.998;2023-09-07T02:01:38;9.02;;;8.23;;
30299;SDS011;17110;52.602;12.998;2023-09-07T02:02:39;9.93;;;8.55;;
30299;SDS011;17110;52.602;12.998;2023-09-07T02:03:40;9.80;;;8.63;;
30299;SDS011;17110;52.602;12.998;2023-09-07T02:04:40;8.93;;;8.13;;
30299;SDS011;17110;52.602;12.998;2023-09-07T02:05:41;9.57;;;8.63;;
30299;SDS011;17110;52.602;12.998;2023-09-07T02:06:43;9.18;;;8.30;;
30299;SDS011;17110;52.602;12.998;2023-09-07T02:07:45;9.52;;;8.75;;
30299;SDS011;17110;52.602;12.998;2023-09-07T02:08:46;8.95;;;8.15;;
30299;SDS011;17110;52.602;12.998;2023-09-07T02:09:47;8.57;;;7.88;;
30299;SDS011;17110;52.602;12.998;2023-09-07T02:10:48;9.32;;;8.45;;
30299;SDS011;17110;52.602;12.998;2023-09-07T02:11:48;9.18;;;8.27;;
30299;SDS011;17110;52.602;12.998;2023-09-07T02:12:49;9.10;;;8.02;;
30299;SDS011;17110;52.602;12.998;2023-09-07T02:13:49;9.48;;;8.68;;
30299;SDS011;17110;52.602;12.998;2023-09-07T02:14:50;9.13;;;8.35;;
30299;SDS011;17110;52.602;12.998;2023-09-07T02:15:51;8.73;;;8.02;;
30299;SDS011;17110;52.602;12.998;2023-09-07T02:16:51;8.40;;;7.70;;
30299;SDS011;17110;52.602;12.998;2023-09-07T02:17:52;8.88;;;7.97;;
30299;SDS011;17110;52.602;12.998;2023-09-07T02:19:00;8.57;;;7.82;;
30299;SDS011;17110;52.602;12.998;2023-09-07T02:20:02;8.40;;;7.80;;
30299;SDS011;17110;52.602;12.998;2023-09-07T02:21:03;8.05;;;7.35;;
30299;SDS011;17110;52.602;12.998;2023-09-07T02:22:04;9.48;;;8.48;;
30299;SDS011;17110;52.602;12.998;2023-09-07T02:23:06;8.38;;;7.68;;
30299;SDS011;17110;52.602;12.998;2023-09-07T02:24:06;7.78;;;7.18;;
30299;SDS011;17110;52.602;12.998;2023-09-07T02:25:08;7.68;;;7.07;;
30299;SDS011;17110;52.602;12.998;2023-09-07T02:26:08;9.82;;;8.90;;
30299;SDS011;17110;52.602;12.998;2023-09-07T02:27:09;8.38;;;7.65;;
30299;SDS011;17110;52.602;12.998;2023-09-07T02:28:09;8.82;;;8.05;;
30299;SDS011;17110;52.602;12.998;2023-09-07T02:29:10;7.90;;;7.25;;
30299;SDS011;17110;52.602;12.998;2023-09-07T02:30:11;8.50;;;7.80;;
30299;SDS011;17110;52.602;12.998;2023-09-07T02:31:12;9.05;;;8.15;;
30299;SDS011;17110;52.602;12.998;2023-09-07T02:32:13;8.50;;;7.80;;
30299;SDS011;17110;52.602;12.998;2023-09-07T02:33:14;8.18;;;7.45;;
30299;SDS011;17110;52.602;12.998;2023-09-07T02:34:14;8.95;;;8.15;;
30299;SDS011;17110;52.602;12.998;2023-09-07T02:35:15;8.60;;;7.80;;
30299;SDS011;17110;52.602;12.998;2023-09-07T02:36:16;8.02;;;7.32;;
30299;SDS011;17110;52.602;12.998;2023-09-07T02:37:16;10.27;;;7.88;;
30299;SDS011;17110;52.602;12.998;2023-09-07T02:38:18;8.10;;;7.43;;
30299;SDS011;17110;52.602;12.998;2023-09-07T02:39:19;8.18;;;7.38;;
30299;SDS011;17110;52.602;12.998;2023-09-07T02:40:19;8.18;;;7.38;;
30299;SDS011;17110;52.602;12.998;2023-09-07T02:41:20;8.02;;;7.32;;
30299;SDS011;17110;52.602;12.998;2023-09-07T02:42:22;9.15;;;7.90;;
30299;SDS011;17110;52.602;12.998;2023-09-07T02:43:22;8.13;;;7.32;;
30299;SDS011;17110;52.602;12.998;2023-09-07T02:44:23;9.02;;;7.88;;
30299;SDS011;17110;52.602;12.998;2023-09-07T02:45:23;8.40;;;7.68;;
30299;SDS011;17110;52.602;12.998;2023-09-07T02:46:24;7.82;;;7.03;;
30299;SDS011;17110;52.602;12.998;2023-09-07T02:47:25;8.88;;;8.13;;
30299;SDS011;17110;52.602;12.998;2023-09-07T02:48:25;8.90;;;8.02;;
30299;SDS011;17110;52.602;12.998;2023-09-07T02:49:26;10.27;;;8.15;;
30299;SDS011;17110;52.602;12.998;2023-09-07T02:50:28;8.15;;;7.35;;
30299;SDS011;17110;52.602;12.998;2023-09-07T02:51:29;7.50;;;6.90;;
30299;SDS011;17110;52.602;12.998;2023-09-07T02:52:31;8.95;;;7.68;;
30299;SDS011;17110;52.602;12.998;2023-09-07T02:53:33;8.45;;;7.75;;
30299;SDS011;17110;52.602;12.998;2023-09-07T02:54:33;8.65;;;7.95;;
30299;SDS011;17110;52.602;12.998;2023-09-07T02:55:34;8.43;;;7.80;;
30299;SDS011;17110;52.602;12.998;2023-09-07T02:56:35;10.30;;;9.23;;
30299;SDS011;17110;52.602;12.998;2023-09-07T02:57:35;10.63;;;9.00;;
30299;SDS011;17110;52.602;12.998;2023-09-07T02:58:36;8.70;;;7.90;;
30299;SDS011;17110;52.602;12.998;2023-09-07T02:59:37;9.63;;;8.30;;
30299;SDS011;17110;52.602;12.998;2023-09-07T03:00:40;9.52;;;8.63;;
30299;SDS011;17110;52.602;12.998;2023-09-07T03:01:41;9.57;;;8.77;;
30299;SDS011;17110;52.602;12.998;2023-09-07T03:02:42;8.85;;;8.15;;
30299;SDS011;17110;52.602;12.998;2023-09-07T03:03:43;9.07;;;8.38;;
30299;SDS011;17110;52.602;12.998;2023-09-07T03:04:44;9.32;;;8.32;;
30299;SDS011;17110;52.602;12.998;2023-09-07T03:05:44;15.60;;;9.10;;
30299;SDS011;17110;52.602;12.998;2023-09-07T03:06:45;26.50;;;10.23;;
30299;SDS011;17110;52.602;12.998;2023-09-07T03:07:46;37.92;;;10.20;;
30299;SDS011;17110;52.602;12.998;2023-09-07T03:08:49;16.52;;;9.07;;
30299;SDS011;17110;52.602;12.998;2023-09-07T03:09:51;13.07;;;8.75;;
30299;SDS011;17110;52.602;12.998;2023-09-07T03:10:52;11.20;;;8.70;;
30299;SDS011;17110;52.602;12.998;2023-09-07T03:11:52;9.48;;;8.52;;
30299;SDS011;17110;52.602;12.998;2023-09-07T03:12:53;12.27;;;8.90;;
30299;SDS011;17110;52.602;12.998;2023-09-07T03:13:54;10.02;;;8.27;;
30299;SDS011;17110;52.602;12.998;2023-09-07T03:14:54;9.48;;;8.48;;
30299;SDS011;17110;52.602;12.998;2023-09-07T03:15:55;9.35;;;8.27;;
30299;SDS011;17110;52.602;12.998;2023-09-07T03:16:56;10.75;;;8.45;;
30299;SDS011;17110;52.602;12.998;2023-09-07T03:17:57;9.80;;;9.00;;
30299;SDS011;17110;52.602;12.998;2023-09-07T03:18:58;8.73;;;7.90;;
30299;SDS011;17110;52.602;12.998;2023-09-07T03:19:58;9.93;;;8.93;;
30299;SDS011;17110;52.602;12.998;2023-09-07T03:21:00;9.73;;;8.80;;
30299;SDS011;17110;52.602;12.998;2023-09-07T03:22:01;9.90;;;9.00;;
30299;SDS011;17110;52.602;12.998;2023-09-07T03:23:02;9.13;;;8.32;;
30299;SDS011;17110;52.602;12.998;2023-09-07T03:24:05;8.45;;;7.75;;
30299;SDS011;17110;52.602;12.998;2023-09-07T03:25:06;10.65;;;9.63;;
30299;SDS011;17110;52.602;12.998;2023-09-07T03:26:08;9.52;;;8.52;;
30299;SDS011;17110;52.602;12.998;2023-09-07T03:27:09;8.75;;;8.02;;
30299;SDS011;17110;52.602;12.998;2023-09-07T03:28:10;10.13;;;8.57;;
30299;SDS011;17110;52.602;12.998;2023-09-07T03:29:11;9.75;;;8.95;;
30299;SDS011;17110;52.602;12.998;2023-09-07T03:30:12;9.95;;;9.05;;
30299;SDS011;17110;52.602;12.998;2023-09-07T03:31:12;9.38;;;8.48;;
30299;SDS011;17110;52.602;12.998;2023-09-07T03:32:13;9.02;;;8.25;;
30299;SDS011;17110;52.602;12.998;2023-09-07T03:33:14;9.93;;;9.10;;
30299;SDS011;17110;52.602;12.998;2023-09-07T03:34:14;9.70;;;8.90;;
30299;SDS011;17110;52.602;12.998;2023-09-07T03:35:15;9.05;;;8.35;;
30299;SDS011;17110;52.602;12.998;2023-09-07T03:36:16;8.80;;;8.10;;
30299;SDS011;17110;52.602;12.998;2023-09-07T03:37:17;10.25;;;9.25;;
30299;SDS011;17110;52.602;12.998;2023-09-07T03:38:18;10.25;;;9.27;;
30299;SDS011;17110;52.602;12.998;2023-09-07T03:39:20;9.63;;;8.60;;
30299;SDS011;17110;52.602;12.998;2023-09-07T03:40:20;9.80;;;9.00;;
30299;SDS011;17110;52.602;12.998;2023-09-07T03:41:21;9.80;;;9.00;;
30299;SDS011;17110;52.602;12.998;2023-09-07T03:42:22;9.80;;;8.90;;
30299;SDS011;17110;52.602;12.998;2023-09-07T03:43:23;8.88;;;8.13;;
30299;SDS011;17110;52.602;12.998;2023-09-07T03:44:24;9.68;;;8.88;;
30299;SDS011;17110;52.602;12.998;2023-09-07T03:45:24;9.40;;;8.55;;
30299;SDS011;17110;52.602;12.998;2023-09-07T03:46:25;9.73;;;8.93;;
30299;SDS011;17110;52.602;12.998;2023-09-07T03:47:26;10.05;;;9.10;;
30299;SDS011;17110;52.602;12.998;2023-09-07T03:48:27;9.57;;;8.77;;
30299;SDS011;17110;52.602;12.998;2023-09-07T03:49:27;9.13;;;8.32;;
30299;SDS011;17110;52.602;12.998;2023-09-07T03:50:28;10.13;;;9.23;;
30299;SDS011;17110;52.602;12.998;2023-09-07T03:51:29;9.98;;;9.07;;
30299;SDS011;17110;52.602;12.998;2023-09-07T03:52:29;10.20;;;9.40;;
30299;SDS011;17110;52.602;12.998;2023-09-07T03:53:32;9.60;;;8.80;;
30299;SDS011;17110;52.602;12.998;2023-09-07T03:54:34;9.43;;;8.63;;
30299;SDS011;17110;52.602;12.998;2023-09-07T03:55:40;10.50;;;9.50;;
30299;SDS011;17110;52.602;12.998;2023-09-07T03:56:40;10.25;;;9.25;;
30299;SDS011;17110;52.602;12.998;2023-09-07T03:57:42;9.30;;;8.50;;
30299;SDS011;17110;52.602;12.998;2023-09-07T03:58:44;10.57;;;9.48;;
30299;SDS011;17110;52.602;12.998;2023-09-07T03:59:44;10.38;;;9.45;;
30299;SDS011;17110;52.602;12.998;2023-09-07T04:00:45;9.95;;;9.13;;
30299;SDS011;17110;52.602;12.998;2023-09-07T04:01:46;31.45;;;10.25;;
30299;SDS011;17110;52.602;12.998;2023-09-07T04:02:46;39.78;;;12.25;;
30299;SDS011;17110;52.602;12.998;2023-09-07T04:03:48;17.15;;;9.98;;
30299;SDS011;17110;52.602;12.998;2023-09-07T04:04:48;17.77;;;10.15;;
30299;SDS011;17110;52.602;12.998;2023-09-07T04:05:50;16.58;;;10.27;;
30299;SDS011;17110;52.602;12.998;2023-09-07T04:06:50;9.90;;;8.85;;
30299;SDS011;17110;52.602;12.998;2023-09-07T04:07:51;10.23;;;9.23;;
30299;SDS011;17110;52.602;12.998;2023-09-07T04:08:51;9.75;;;8.82;;
30299;SDS011;17110;52.602;12.998;2023-09-07T04:09:54;10.52;;;9.13;;
30299;SDS011;17110;52.602;12.998;2023-09-07T04:10:54;9.93;;;9.02;;
30299;SDS011;17110;52.602;12.998;2023-09-07T04:11:55;12.60;;;10.93;;
30299;SDS011;17110;52.602;12.998;2023-09-07T04:12:55;10.95;;;10.02;;
30299;SDS011;17110;52.602;12.998;2023-09-07T04:13:56;10.40;;;9.50;;
30299;SDS011;17110;52.602;12.998;2023-09-07T04:14:57;11.30;;;10.20;;
30299;SDS011;17110;52.602;12.998;2023-09-07T04:15:57;11.70;;;10.00;;
30299;SDS011;17110;52.602;12.998;2023-09-07T04:16:58;11.07;;;10.18;;
30299;SDS011;17110;52.602;12.998;2023-09-07T04:17:59;11.63;;;10.57;;
30299;SDS011;17110;52.602;12.998;2023-09-07T04:18:59;11.32;;;10.32;;
30299;SDS011;17110;52.602;12.998;2023-09-07T04:20:00;11.60;;;10.63;;
30299;SDS011;17110;52.602;12.998;2023-09-07T04:21:07;10.85;;;9.85;;
30299;SDS011;17110;52.602;12.998;2023-09-07T04:22:08;12.52;;;11.23;;
30299;SDS011;17110;52.602;12.998;2023-09-07T04:23:10;13.15;;;11.85;;
30299;SDS011;17110;52.602;12.998;2023-09-07T04:24:10;11.60;;;10.60;;
30299;SDS011;17110;52.602;12.998;2023-09-07T04:25:13;11.68;;;10.77;;
30299;SDS011;17110;52.602;12.998;2023-09-07T04:26:14;11.77;;;10.75;;
30299;SDS011;17110;52.602;12.998;2023-09-07T04:27:14;11.73;;;10.73;;
30299;SDS011;17110;52.602;12.998;2023-09-07T04:28:15;11.35;;;10.30;;
30299;SDS011;17110;52.602;12.998;2023-09-07T04:29:16;11.65;;;10.52;;
30299;SDS011;17110;52.602;12.998;2023-09-07T04:30:16;11.90;;;10.70;;
30299;SDS011;17110;52.602;12.998;2023-09-07T04:31:17;10.82;;;9.93;;
30299;SDS011;17110;52.602;12.998;2023-09-07T04:32:18;11.07;;;10.07;;
30299;SDS011;17110;52.602;12.998;2023-09-07T04:33:19;11.07;;;10.18;;
30299;SDS011;17110;52.602;12.998;2023-09-07T04:34:20;11.15;;;10.23;;
30299;SDS011;17110;52.602;12.998;2023-09-07T04:35:26;10.75;;;9.77;;
30299;SDS011;17110;52.602;12.998;2023-09-07T04:36:28;11.90;;;10.88;;
30299;SDS011;17110;52.602;12.998;2023-09-07T04:37:29;11.45;;;10.35;;
30299;SDS011;17110;52.602;12.998;2023-09-07T04:38:29;11.27;;;10.15;;
30299;SDS011;17110;52.602;12.998;2023-09-07T04:39:30;11.63;;;10.60;;
30299;SDS011;17110;52.602;12.998;2023-09-07T04:40:32;10.93;;;9.75;;
30299;SDS011;17110;52.602;12.998;2023-09-07T04:41:33;11.32;;;10.32;;
30299;SDS011;17110;52.602;12.998;2023-09-07T04:42:34;11.52;;;10.43;;
30299;SDS011;17110;52.602;12.998;2023-09-07T04:43:34;12.45;;;11.30;;
30299;SDS011;17110;52.602;12.998;2023-09-07T04:44:36;11.75;;;10.65;;
30299;SDS011;17110;52.602;12.998;2023-09-07T04:45:37;11.02;;;9.93;;
30299;SDS011;17110;52.602;12.998;2023-09-07T04:46:45;11.57;;;10.55;;
30299;SDS011;17110;52.602;12.998;2023-09-07T04:47:45;12.13;;;11.00;;
30299;SDS011;17110;52.602;12.998;2023-09-07T04:48:46;10.63;;;9.73;;
30299;SDS011;17110;52.602;12.998;2023-09-07T04:49:48;11.20;;;10.07;;
30299;SDS011;17110;52.602;12.998;2023-09-07T04:50:49;11.02;;;10.00;;
30299;SDS011;17110;52.602;12.998;2023-09-07T04:51:57;11.50;;;10.40;;
30299;SDS011;17110;52.602;12.998;2023-09-07T04:52:58;11.07;;;10.05;;
30299;SDS011;17110;52.602;12.998;2023-09-07T04:53:59;11.18;;;10.15;;
30299;SDS011;17110;52.602;12.998;2023-09-07T04:55:00;11.38;;;10.32;;
30299;SDS011;17110;52.602;12.998;2023-09-07T04:56:02;10.95;;;9.93;;
30299;SDS011;17110;52.602;12.998;2023-09-07T04:57:04;10.88;;;9.95;;
30299;SDS011;17110;52.602;12.998;2023-09-07T04:58:04;10.20;;;9.23;;
30299;SDS011;17110;52.602;12.998;2023-09-07T04:59:05;11.30;;;10.30;;
30299;SDS011;17110;52.602;12.998;2023-09-07T05:00:06;11.93;;;10.82;;
30299;SDS011;17110;52.602;12.998;2023-09-07T05:01:08;12.35;;;10.65;;
30299;SDS011;17110;52.602;12.998;2023-09-07T05:02:09;11.20;;;10.20;;
30299;SDS011;17110;52.602;12.998;2023-09-07T05:03:10;11.57;;;10.60;;
30299;SDS011;17110;52.602;12.998;2023-09-07T05:04:11;12.25;;;11.10;;
30299;SDS011;17110;52.602;12.998;2023-09-07T05:05:11;11.60;;;10.52;;
30299;SDS011;17110;52.602;12.998;2023-09-07T05:06:12;11.90;;;10.90;;
30299;SDS011;17110;52.602;12.998;2023-09-07T05:07:13;11.50;;;10.60;;
30299;SDS011;17110;52.602;12.998;2023-09-07T05:08:13;11.27;;;10.35;;
30299;SDS011;17110;52.602;12.998;2023-09-07T05:09:14;12.27;;;11.27;;
30299;SDS011;17110;52.602;12.998;2023-09-07T05:10:15;11.23;;;10.32;;
30299;SDS011;17110;52.602;12.998;2023-09-07T05:11:17;11.23;;;10.27;;
30299;SDS011;17110;52.602;12.998;2023-09-07T05:12:18;11.93;;;10.63;;
30299;SDS011;17110;52.602;12.998;2023-09-07T05:13:18;12.75;;;10.75;;
30299;SDS011;17110;52.602;12.998;2023-09-07T05:14:19;12.23;;;10.95;;
30299;SDS011;17110;52.602;12.998;2023-09-07T05:15:19;93.57;;;16.80;;
30299;SDS011;17110;52.602;12.998;2023-09-07T05:16:21;59.05;;;13.57;;
30299;SDS011;17110;52.602;12.998;2023-09-07T05:17:21;22.92;;;11.40;;
30299;SDS011;17110;52.602;12.998;2023-09-07T05:18:22;18.80;;;11.50;;
30299;SDS011;17110;52.602;12.998;2023-09-07T05:19:23;12.77;;;11.40;;
30299;SDS011;17110;52.602;12.998;2023-09-07T05:20:24;11.77;;;10.48;;
30299;SDS011;17110;52.602;12.998;2023-09-07T05:21:24;11.25;;;10.25;;
30299;SDS011;17110;52.602;12.998;2023-09-07T05:22:25;11.52;;;10.40;;
30299;SDS011;17110;52.602;12.998;2023-09-07T05:23:26;14.25;;;10.82;;
30299;SDS011;17110;52.602;12.998;2023-09-07T05:24:28;11.52;;;10.43;;
30299;SDS011;17110;52.602;12.998;2023-09-07T05:25:28;10.65;;;9.65;;
30299;SDS011;17110;52.602;12.998;2023-09-07T05:26:30;10.80;;;9.90;;
30299;SDS011;17110;52.602;12.998;2023-09-07T05:27:31;11.07;;;9.98;;
30299;SDS011;17110;52.602;12.998;2023-09-07T05:28:31;11.30;;;10.30;;
30299;SDS011;17110;52.602;12.998;2023-09-07T05:29:32;10.63;;;9.73;;
30299;SDS011;17110;52.602;12.998;2023-09-07T05:30:33;10.40;;;9.57;;
30299;SDS011;17110;52.602;12.998;2023-09-07T05:31:33;12.30;;;9.95;;
30299;SDS011;17110;52.602;12.998;2023-09-07T05:32:34;14.13;;;8.70;;
30299;SDS011;17110;52.602;12.998;2023-09-07T05:33:35;9.02;;;8.20;;
30299;SDS011;17110;52.602;12.998;2023-09-07T05:34:35;10.00;;;9.00;;
30299;SDS011;17110;52.602;12.998;2023-09-07T05:35:36;8.50;;;7.63;;
30299;SDS011;17110;52.602;12.998;2023-09-07T05:36:37;8.25;;;7.55;;
30299;SDS011;17110;52.602;12.998;2023-09-07T05:37:37;8.63;;;7.82;;
30299;SDS011;17110;52.602;12.998;2023-09-07T05:38:38;8.27;;;7.35;;
30299;SDS011;17110;52.602;12.998;2023-09-07T05:39:39;8.75;;;7.45;;
30299;SDS011;17110;52.602;12.998;2023-09-07T05:40:40;19.35;;;9.27;;
30299;SDS011;17110;52.602;12.998;2023-09-07T05:41:43;8.65;;;7.85;;
30299;SDS011;17110;52.602;12.998;2023-09-07T05:42:43;8.75;;;7.15;;
30299;SDS011;17110;52.602;12.998;2023-09-07T05:43:44;7.72;;;7.03;;
30299;SDS011;17110;52.602;12.998;2023-09-07T05:44:45;154.00;;;17.10;;
30299;SDS011;17110;52.602;12.998;2023-09-07T05:45:46;26.40;;;8.30;;
30299;SDS011;17110;52.602;12.998;2023-09-07T05:46:46;11.82;;;7.10;;
30299;SDS011;17110;52.602;12.998;2023-09-07T05:47:47;8.93;;;7.03;;
30299;SDS011;17110;52.602;12.998;2023-09-07T05:48:48;90.90;;;12.23;;
30299;SDS011;17110;52.602;12.998;2023-09-07T05:49:49;62.80;;;10.13;;
30299;SDS011;17110;52.602;12.998;2023-09-07T05:50:50;14.25;;;6.75;;
30299;SDS011;17110;52.602;12.998;2023-09-07T05:51:51;7.85;;;6.40;;
30299;SDS011;17110;52.602;12.998;2023-09-07T05:52:51;7.47;;;6.75;;
30299;SDS011;17110;52.602;12.998;2023-09-07T05:53:53;8.70;;;6.60;;
30299;SDS011;17110;52.602;12.998;2023-09-07T05:54:54;9.38;;;7.18;;
30299;SDS011;17110;52.602;12.998;2023-09-07T05:55:55;6.85;;;6.25;;
30299;SDS011;17110;52.602;12.998;2023-09-07T05:56:57;7.65;;;6.47;;
30299;SDS011;17110;52.602;12.998;2023-09-07T05:57:58;6.88;;;6.25;;
30299;SDS011;17110;52.602;12.998;2023-09-07T05:59:00;8.13;;;6.93;;
30299;SDS011;17110;52.602;12.998;2023-09-07T06:00:01;7.68;;;6.57;;